Lleida, Spain
Current Conditions -  °F | °C
As of 1:30 PM on Saturday 20 Dec 2014 (Local Time) from LERS Reporting Station
Few Clouds Few Clouds  
Wind Chill: 57°   Ceiling: Unl
Heat Index: 57°   Visibility: 6mi
Dew Point: 45°   Wind: 6mph
Humidity: 63%   Direction: 340°NNW
Pressure: 30.45"   Gusts: NA
Location:  41.61°N, 0.63°E
Report Text: LERS 201230Z 34005KT 310V030 9999 FEW020 14/07 Q1031
Loading
Personal Weather Stations






























Interactive Weather Map New forecast layout! Learn more

10-Day Weather Forecast

Advertisements
Track Severe Weather on mobile